Pau, France

5:56 AM CET on February 10, 2016 (GMT +0100)
Pau / Pyrenees | | Change Station
CLOSE
Current Station
Airport
Location: Pau,
Elevation: 607 ft
Nearby Weather Stations

Elev 607 ft 43.38 °N, 0.42 °W | Updated 26 minutes ago

Light Rain
Light Rain
43 °F
Feels Like 38 °F
N
9
Wind Variable Wind from WSW

Today
High -- | Low -- °F
--% Chance of Precip.
Yesterday
High -- | Low -- °F
Precip. -- in
Pressure 29.92 in
Visibility 3.7 miles
Clouds Few 1900 ft
Scattered Clouds 2500 ft
Mostly Cloudy 3200 ft
Windchill 38 °F
Dew Point 41 °F
Humidity 93%
Rainfall 0.00 in
Snow Depth Not available.
8:07 AM 6:24 PM
Waxing Crescent, 3% visible
METAR LFBP 100430Z AUTO 24008KT 6000 -RA FEW019/// SCT025/// BKN032/// ///TCU 06/05 Q1013
Pressure 29.92 in
Visibility 3.7 miles
Clouds Few 1900 ft
Scattered Clouds 2500 ft
Mostly Cloudy 3200 ft
Windchill 38 °F
Dew Point 41 °F
Humidity 93%
Rainfall 0.00 in
Snow Depth Not available.
8:07 AM 6:24 PM
Waxing Crescent, 3% visible
METAR LFBP 100430Z AUTO 24008KT 6000 -RA FEW019/// SCT025/// BKN032/// ///TCU 06/05 Q1013

10-Day Weather Forecast

Almanac

Astronomy

Feb. 10, 2016 Rise Set
Actual Time
Civil Twilight
Nautical Twilight
Astronomical Twilight
Moon
Length of Visible Light
Length of Day
Tomorrow will be .
, % of the Moon is Illuminated

Today's Extremes

Country Highs Country Lows

Community

WunderPhotos

Upload Photos

1,891,810 photos uploaded!

WunderBlog® & News

Nearby

Air Quality

  Air Quality AQ Index Pollutant
Not available.

Snow Depth

Station Depth Elevation

Earthquake Activity

City Distance Mag. Time & Date
Minimum magnitude displayed is 2.5.

Coastal Water Temperatures

Place Temperature

Stations

Nearby Weather Stations

Station Location Temp. Windchill Dew Point Humidity Wind Precip. Elev Updated Type